Van Tassell, WY

8:13 PM MDT on September 04, 2015 (GMT -0600)
LEMS | | Change Station
CLOSE
Current Station
Personal Weather Station
Location: Lusk, WY
Elevation: 5070 ft
Nearby Weather Stations
Active Advisory: Fire Weather Watch

Elev 5070 ft 42.76 °N, 104.45 °W | Updated 49 seconds ago

Mostly Cloudy
Mostly Cloudy
77.4 °F
Feels Like 77 °F
N
1.0
Wind Variable Wind from WSW
Gusts 27.0 mph

Today
High -- | Low -- °F
--% Chance of Precip.
Yesterday
High -- | Low -- °F
Precip. -- in
6:24 AM 7:25 PM
Waning Gibbous, 53% visible
Pressure 29.72 in
Visibility 10.0 miles
Clouds Clear
Heat Index 77 °F
Dew Point 38 °F
Humidity 24%
Rainfall in
Snow Depth Not available.
UV 0 out of 12
Pollen 9.60 out of 12
Air Quality Not available.
Flu Activity Not available.
METAR KTOR 050153Z AUTO 12008KT 10SM CLR 27/07 A2986 RMK AO2 SLP064 T02670072
Pressure 29.72 in
Visibility 10.0 miles
Clouds Clear
Heat Index 77 °F
Dew Point 38 °F
Humidity 24%
Rainfall in
Snow Depth Not available.
UV 0 out of 12
Pollen 9.60 out of 12
Air Quality Not available.
Flu Activity Not available.
METAR KTOR 050153Z AUTO 12008KT 10SM CLR 27/07 A2986 RMK AO2 SLP064 T02670072

10-Day Weather Forecast

×

Almanac

Astronomy

Sep. 04, 2015 Rise Set
Actual Time
Civil Twilight
Nautical Twilight
Astronomical Twilight
Moon
Length of Visible Light
Length of Day
Tomorrow will be .
, % of the Moon is Illuminated

Today's Extremes

State Highs State Lows

Community

WunderPhotos

Upload Photos

1,852,384 photos uploaded!

WunderBlogs® & News

Nearby

Air Quality

  Air Quality AQ Index Pollutant
Not available.

Snow Depth

Station Depth Elevation

Earthquake Activity

City Distance Mag. Time & Date
Minimum magnitude displayed is 2.5.

Coastal Water Temperatures

Place Temperature

Stations

Nearby Weather Stations

Station Location Temp. Windchill Dew Point Humidity Wind Precip. Elev Updated Type
                   
Fire Weather Watch
Statement as of 3:17 PM MDT on September 04, 2015

... Fire Weather Watch in effect from Sunday morning through
Sunday evening for low humidity and gusty winds for fire weather
zones 301... 302... 303 and 308...

The National Weather Service in Cheyenne has issued a Fire
Weather Watch... which is in effect from Sunday morning through
Sunday evening.

* Affected area... fire weather zones 301... 302... 303 and 308.

* Wind... sustained west wind 15 to 25 mph with gusts 30 to 40
mph.

* Humidity... minimum relative humidity of 10 to 20 percent.

* Impacts... any fires that develop will likely spread rapidly.
Outdoor burning is not recommended.

Precautionary/preparedness actions...

A Fire Weather Watch means that critical fire weather conditions
are forecast to occur. Listen for later forecasts and possible
red flag warnings.